KSHR

Sheridan County Airport

Sheridan, Wyoming, USA
METAR KSHR 162153Z AUTO 02004KT 10SM CLR 09/M05 A3007 RMK AO2 SLP205 T00941050
Observed Flight Rules
Dec-16 @ 21:53 UTC (10 minutes ago) Visual Flight Rules
Wind Visibility Clouds
20° at 4 knots 10 miles
  • Clear skies
Temperatures Readings
Current 9°C / 48°F
Dewpoint -5°C / 23°F
Humidity 37%
Altimeter 30.07" Hg
Pressure 1020.5 hPa
Elevation 1202
METAR KSHR 162153Z AUTO 02004KT 10SM CLR 09/M05 A3007 RMK AO2 SLP205 T00941050
Observed Flight Rules
Dec-16 @ 21:53 UTC
(10 minutes ago)
VFR
Wind Visibility
20° at 4 knots 10 miles
Clouds
  • Clear skies
Temperature Dewpoint
9°C / 48°F -5°C / 23°F
Humidity Altimeter Pressure
37% 30.07" Hg 1020.5 hPa